Time;durP1;ratioP1;P1;durP2;ratioP2;P2;SDS_P1;SDS_P2;PMS_P1;PMS_P2;Temp;Humidity;BMP_temperature;BMP_pressure;BME280_temperature;BME280_humidity;BME280_pressure;Samples;Min_cycle;Max_cycle;Signal;HPM_P1;HPM_P2
2024/02/04 00:01:45;;;;;;;0.38;0.20;;;;;;;;;;5053130;28;20025;-59
2024/02/04 00:04:11;;;;;;;0.22;0.20;;;;;;;;;;5053235;28;20041;-57
2024/02/04 00:06:37;;;;;;;0.90;0.22;;;;;;;;;;5053060;28;20071;-58
2024/02/04 00:09:04;;;;;;;1.02;0.50;;;;;;;;;;5053337;28;20021;-59
2024/02/04 00:11:30;;;;;;;0.43;0.20;;;;;;;;;;5053506;28;20029;-59
2024/02/04 00:13:56;;;;;;;0.38;0.10;;;;;;;;;;5053209;28;20033;-59
2024/02/04 00:16:23;;;;;;;0.70;0.30;;;;;;;;;;5053239;28;20398;-59
2024/02/04 00:18:49;;;;;;;0.30;0.20;;;;;;;;;;5053897;28;20033;-58
2024/02/04 00:21:15;;;;;;;0.65;0.40;;;;;;;;;;5051339;28;20100;-57
2024/02/04 00:23:40;;;;;;;0.10;0.10;;;;;;;;;;5053152;28;20087;-59
2024/02/04 00:26:06;;;;;;;0.50;0.20;;;;;;;;;;5052990;28;20067;-58
2024/02/04 00:28:32;;;;;;;1.13;0.50;;;;;;;;;;5053828;28;20056;-59
2024/02/04 00:30:59;;;;;;;1.15;0.43;;;;;;;;;;5052912;28;20025;-58
2024/02/04 00:33:25;;;;;;;0.60;0.22;;;;;;;;;;5052820;28;20040;-58
2024/02/04 00:35:51;;;;;;;0.50;0.20;;;;;;;;;;5052888;28;20032;-59
2024/02/04 00:38:17;;;;;;;0.73;0.30;;;;;;;;;;5055511;28;20414;-58
2024/02/04 00:40:43;;;;;;;0.43;0.15;;;;;;;;;;5056229;28;20025;-58
2024/02/04 00:43:09;;;;;;;0.93;0.45;;;;;;;;;;5056378;28;20094;-58
2024/02/04 00:45:35;;;;;;;0.88;0.30;;;;;;;;;;5056715;28;20025;-59
2024/02/04 00:48:01;;;;;;;0.35;0.20;;;;;;;;;;5056974;28;20035;-59
2024/02/04 00:50:27;;;;;;;0.45;0.22;;;;;;;;;;5056318;28;20383;-59
2024/02/04 00:52:53;;;;;;;0.28;0.10;;;;;;;;;;5055993;28;20021;-59
2024/02/04 00:55:19;;;;;;;1.08;0.40;;;;;;;;;;5055796;28;20055;-58
2024/02/04 00:57:45;;;;;;;0.35;0.20;;;;;;;;;;5056864;28;20033;-58
2024/02/04 01:00:12;;;;;;;0.88;0.38;;;;;;;;;;5055875;28;20079;-59
2024/02/04 01:02:38;;;;;;;1.30;0.45;;;;;;;;;;5056846;28;20098;-60
2024/02/04 01:05:04;;;;;;;0.73;0.25;;;;;;;;;;5056602;28;20068;-60
2024/02/04 01:07:30;;;;;;;0.20;0.10;;;;;;;;;;5056608;28;20029;-59
2024/02/04 01:09:56;;;;;;;1.02;0.40;;;;;;;;;;5056612;28;20510;-59
2024/02/04 01:12:22;;;;;;;0.85;0.32;;;;;;;;;;5055960;28;20108;-59
2024/02/04 01:14:48;;;;;;;1.08;0.40;;;;;;;;;;5055957;28;20474;-59
2024/02/04 01:17:14;;;;;;;1.02;0.30;;;;;;;;;;5056123;28;20025;-60
2024/02/04 01:19:40;;;;;;;0.70;0.25;;;;;;;;;;5055857;28;20433;-59
2024/02/04 01:22:06;;;;;;;0.50;0.20;;;;;;;;;;5055665;28;20078;-59
2024/02/04 01:24:32;;;;;;;0.60;0.30;;;;;;;;;;5055484;28;20028;-59
2024/02/04 01:26:58;;;;;;;0.45;0.20;;;;;;;;;;5056190;28;20021;-58
2024/02/04 01:29:24;;;;;;;0.65;0.30;;;;;;;;;;5056114;28;20367;-59
2024/02/04 01:31:54;;;;;;;0.57;0.30;;;;;;;;;;5056134;28;20025;-60
2024/02/04 01:34:19;;;;;;;0.38;0.17;;;;;;;;;;5055617;28;20207;-58
2024/02/04 01:36:45;;;;;;;0.50;0.20;;;;;;;;;;5056039;28;20434;-59
2024/02/04 01:39:11;;;;;;;0.65;0.22;;;;;;;;;;5055765;28;20032;-59
2024/02/04 01:41:37;;;;;;;0.73;0.32;;;;;;;;;;5055404;28;20398;-59
2024/02/04 01:44:03;;;;;;;0.43;0.20;;;;;;;;;;5055304;28;20037;-59
2024/02/04 01:46:30;;;;;;;0.50;0.20;;;;;;;;;;5055081;28;20569;-59
2024/02/04 01:48:56;;;;;;;0.60;0.22;;;;;;;;;;5055076;28;20117;-58
2024/02/04 01:51:22;;;;;;;0.60;0.28;;;;;;;;;;5055717;28;20029;-59
2024/02/04 01:53:48;;;;;;;0.85;0.32;;;;;;;;;;5055166;28;20060;-58
2024/02/04 01:56:14;;;;;;;0.82;0.28;;;;;;;;;;5056057;28;20416;-59
2024/02/04 01:58:40;;;;;;;0.45;0.20;;;;;;;;;;5055502;28;20104;-57
2024/02/04 02:01:06;;;;;;;0.52;0.20;;;;;;;;;;5055076;28;20082;-59
2024/02/04 02:03:33;;;;;;;0.22;0.10;;;;;;;;;;5054804;28;20029;-58
2024/02/04 02:06:00;;;;;;;0.50;0.20;;;;;;;;;;5054542;28;20044;-59
2024/02/04 02:08:26;;;;;;;0.68;0.30;;;;;;;;;;5055574;28;20075;-58
2024/02/04 02:10:56;;;;;;;0.45;0.30;;;;;;;;;;5054516;28;20475;-59
2024/02/04 02:13:24;;;;;;;0.73;0.20;;;;;;;;;;5055416;28;20450;-59
2024/02/04 02:15:53;;;;;;;0.38;0.22;;;;;;;;;;5055071;28;20025;-59
2024/02/04 02:18:32;;;;;;;0.32;0.17;;;;;;;;;;5054554;28;20074;-59
2024/02/04 02:21:15;;;;;;;0.38;0.13;;;;;;;;;;5054772;28;20382;-59
2024/02/04 02:23:49;;;;;;;0.40;0.17;;;;;;;;;;5054494;28;20048;-59
2024/02/04 02:26:15;;;;;;;0.40;0.20;;;;;;;;;;5054604;28;20112;-59
2024/02/04 02:28:41;;;;;;;0.70;0.40;;;;;;;;;;5054392;28;20040;-58
2024/02/04 02:31:07;;;;;;;1.42;0.50;;;;;;;;;;5054631;28;20029;-59
2024/02/04 02:33:33;;;;;;;0.10;0.10;;;;;;;;;;5054539;28;20040;-59
2024/02/04 02:36:01;;;;;;;0.35;0.20;;;;;;;;;;5054432;28;20025;-58
2024/02/04 02:38:32;;;;;;;0.30;0.20;;;;;;;;;;5055240;28;20079;-59
2024/02/04 02:41:05;;;;;;;0.35;0.20;;;;;;;;;;5054967;28;20032;-59
2024/02/04 02:43:31;;;;;;;1.50;0.40;;;;;;;;;;5054820;28;20140;-58
2024/02/04 02:45:58;;;;;;;0.30;0.20;;;;;;;;;;5054551;28;20104;-59
2024/02/04 02:48:24;;;;;;;0.82;0.25;;;;;;;;;;5054012;28;20068;-59
2024/02/04 02:50:50;;;;;;;0.88;0.25;;;;;;;;;;5054167;28;20478;-59
2024/02/04 02:53:18;;;;;;;0.50;0.22;;;;;;;;;;5054403;28;20044;-59
2024/02/04 02:55:46;;;;;;;1.02;0.43;;;;;;;;;;5054348;28;20103;-59
2024/02/04 02:58:12;;;;;;;1.55;0.47;;;;;;;;;;5054626;28;20025;-59
2024/02/04 03:00:38;;;;;;;0.63;0.25;;;;;;;;;;5053147;28;20044;-58
2024/02/04 03:03:04;;;;;;;1.42;0.47;;;;;;;;;;5053933;28;20037;-59
2024/02/04 03:05:30;;;;;;;1.35;0.50;;;;;;;;;;5053921;28;20024;-57
2024/02/04 03:07:56;;;;;;;0.52;0.20;;;;;;;;;;5054783;28;20116;-59
2024/02/04 03:10:22;;;;;;;0.68;0.30;;;;;;;;;;5054487;28;20052;-59
2024/02/04 03:12:48;;;;;;;0.22;0.13;;;;;;;;;;5053809;28;20475;-59
2024/02/04 03:15:14;;;;;;;0.60;0.30;;;;;;;;;;5054610;28;20359;-59
2024/02/04 03:17:40;;;;;;;0.80;0.30;;;;;;;;;;5053742;28;20475;-59
2024/02/04 03:20:06;;;;;;;0.35;0.13;;;;;;;;;;5053713;28;20029;-59
2024/02/04 03:22:32;;;;;;;0.88;0.17;;;;;;;;;;5054080;28;20128;-59
2024/02/04 03:24:58;;;;;;;1.73;0.43;;;;;;;;;;5053953;28;20104;-59
2024/02/04 03:27:24;;;;;;;1.02;0.40;;;;;;;;;;5053682;28;20029;-59
2024/02/04 03:29:49;;;;;;;1.10;0.45;;;;;;;;;;5053997;28;20025;-59
2024/02/04 03:32:15;;;;;;;0.95;0.30;;;;;;;;;;5054156;28;20399;-59
2024/02/04 03:34:42;;;;;;;0.88;0.40;;;;;;;;;;5053551;28;20584;-59
2024/02/04 03:37:07;;;;;;;0.77;0.30;;;;;;;;;;5053251;28;20111;-59
2024/02/04 03:39:34;;;;;;;0.63;0.30;;;;;;;;;;5053937;28;20060;-59
2024/02/04 03:41:59;;;;;;;0.88;0.30;;;;;;;;;;5054136;28;20036;-59
2024/02/04 03:44:25;;;;;;;0.28;0.15;;;;;;;;;;5053991;28;20037;-59
2024/02/04 03:46:51;;;;;;;0.40;0.13;;;;;;;;;;5053992;28;20025;-59
2024/02/04 03:49:18;;;;;;;0.77;0.30;;;;;;;;;;5054078;28;20021;-58
2024/02/04 03:51:44;;;;;;;0.30;0.10;;;;;;;;;;5053419;28;20108;-59
2024/02/04 03:54:10;;;;;;;0.50;0.20;;;;;;;;;;5053185;28;20032;-59
2024/02/04 03:56:36;;;;;;;0.40;0.20;;;;;;;;;;5053776;28;20029;-59
2024/02/04 03:59:02;;;;;;;0.75;0.30;;;;;;;;;;5053948;28;20021;-59
2024/02/04 04:01:28;;;;;;;0.85;0.20;;;;;;;;;;5053466;28;20112;-59
2024/02/04 04:03:54;;;;;;;0.63;0.30;;;;;;;;;;5053139;28;20029;-59
2024/02/04 04:06:20;;;;;;;0.85;0.32;;;;;;;;;;5053329;28;20115;-59
2024/02/04 04:08:46;;;;;;;0.60;0.25;;;;;;;;;;5054183;28;20068;-59
2024/02/04 04:11:12;;;;;;;0.35;0.20;;;;;;;;;;5053303;28;20128;-59
2024/02/04 04:13:38;;;;;;;0.70;0.30;;;;;;;;;;5057066;28;20119;-59
2024/02/04 04:16:04;;;;;;;0.32;0.13;;;;;;;;;;5057086;28;20467;-59
2024/02/04 04:18:30;;;;;;;0.45;0.20;;;;;;;;;;5057421;28;20029;-59
2024/02/04 04:20:56;;;;;;;0.77;0.30;;;;;;;;;;5057624;28;20462;-59
2024/02/04 04:23:22;;;;;;;0.70;0.30;;;;;;;;;;5056687;28;20033;-59
2024/02/04 04:25:48;;;;;;;0.03;0.03;;;;;;;;;;5057021;28;20028;-59
2024/02/04 04:28:14;;;;;;;1.17;0.45;;;;;;;;;;5057001;28;20029;-59
2024/02/04 04:30:40;;;;;;;1.67;0.50;;;;;;;;;;5056901;28;20393;-59
2024/02/04 04:33:06;;;;;;;0.52;0.20;;;;;;;;;;5056791;28;20033;-59
2024/02/04 04:35:32;;;;;;;1.00;0.40;;;;;;;;;;5056840;28;20108;-59
2024/02/04 04:37:58;;;;;;;0.38;0.20;;;;;;;;;;5057014;28;20470;-58
2024/02/04 04:40:24;;;;;;;0.57;0.22;;;;;;;;;;5057213;28;20055;-59
2024/02/04 04:42:50;;;;;;;0.35;0.17;;;;;;;;;;5057320;28;20052;-59
2024/02/04 04:45:16;;;;;;;0.85;0.50;;;;;;;;;;5056647;28;20029;-59
2024/02/04 04:47:42;;;;;;;0.22;0.10;;;;;;;;;;5056659;28;20502;-59
2024/02/04 04:50:08;;;;;;;1.77;0.68;;;;;;;;;;5056486;28;20021;-59
2024/02/04 04:52:34;;;;;;;0.55;0.25;;;;;;;;;;5057028;28;20059;-59
2024/02/04 04:55:00;;;;;;;0.90;0.30;;;;;;;;;;5056186;28;20045;-59
2024/02/04 04:57:26;;;;;;;0.17;0.10;;;;;;;;;;5056352;28;20032;-59
2024/02/04 04:59:52;;;;;;;0.45;0.20;;;;;;;;;;5056891;28;20036;-60
2024/02/04 05:02:18;;;;;;;0.88;0.40;;;;;;;;;;5056734;28;20029;-59
2024/02/04 05:04:47;;;;;;;0.28;0.15;;;;;;;;;;5056461;28;20021;-59
2024/02/04 05:07:13;;;;;;;0.60;0.20;;;;;;;;;;5056143;28;20025;-59
2024/02/04 05:09:39;;;;;;;0.43;0.20;;;;;;;;;;5056227;28;20025;-59
2024/02/04 05:12:07;;;;;;;0.68;0.20;;;;;;;;;;5056077;28;20029;-60
2024/02/04 05:14:33;;;;;;;1.08;0.43;;;;;;;;;;5055762;28;20107;-59
2024/02/04 05:16:59;;;;;;;0.68;0.22;;;;;;;;;;5055926;28;20048;-59
2024/02/04 05:19:24;;;;;;;1.48;0.40;;;;;;;;;;5056496;28;20106;-59
2024/02/04 05:21:50;;;;;;;0.70;0.20;;;;;;;;;;5055936;28;20494;-60
2024/02/04 05:24:16;;;;;;;0.68;0.22;;;;;;;;;;5054955;28;20040;-59
2024/02/04 05:26:42;;;;;;;1.20;0.45;;;;;;;;;;5056451;28;20025;-60
2024/02/04 05:29:08;;;;;;;0.40;0.17;;;;;;;;;;5055808;28;20056;-60
2024/02/04 05:31:34;;;;;;;0.85;0.28;;;;;;;;;;5055712;28;20067;-59
2024/02/04 05:34:00;;;;;;;0.45;0.20;;;;;;;;;;5055710;28;20035;-59
2024/02/04 05:36:26;;;;;;;0.57;0.30;;;;;;;;;;5056168;28;20025;-60
2024/02/04 05:38:52;;;;;;;0.45;0.20;;;;;;;;;;5056121;28;20028;-59
2024/02/04 05:41:18;;;;;;;0.75;0.20;;;;;;;;;;5055593;28;20371;-59
2024/02/04 05:43:45;;;;;;;0.60;0.20;;;;;;;;;;5055149;28;20029;-59
2024/02/04 05:46:11;;;;;;;0.32;0.13;;;;;;;;;;5056030;28;20032;-59
2024/02/04 05:48:37;;;;;;;0.10;0.10;;;;;;;;;;5056044;28;20451;-59
2024/02/04 05:51:03;;;;;;;0.25;0.13;;;;;;;;;;5055873;28;20036;-59
2024/02/04 05:53:29;;;;;;;0.03;0.03;;;;;;;;;;5055287;28;20024;-59
2024/02/04 05:55:55;;;;;;;0.55;0.30;;;;;;;;;;5054911;28;20067;-59
2024/02/04 05:58:21;;;;;;;0.25;0.15;;;;;;;;;;5056088;28;20037;-59
2024/02/04 06:00:47;;;;;;;0.63;0.20;;;;;;;;;;5055506;28;20362;-59
2024/02/04 06:03:14;;;;;;;0.20;0.10;;;;;;;;;;5055190;28;20040;-59
2024/02/04 06:05:40;;;;;;;0.60;0.30;;;;;;;;;;5055173;28;20025;-59
2024/02/04 06:08:06;;;;;;;0.30;0.13;;;;;;;;;;5055243;28;20119;-58
2024/02/04 06:10:32;;;;;;;0.25;0.15;;;;;;;;;;5055087;28;20108;-59
2024/02/04 06:12:58;;;;;;;0.68;0.40;;;;;;;;;;5055892;28;20067;-59
2024/02/04 06:15:24;;;;;;;0.20;0.10;;;;;;;;;;5054739;28;20049;-59
2024/02/04 06:17:50;;;;;;;0.82;0.30;;;;;;;;;;5054859;28;20155;-59
2024/02/04 06:20:16;;;;;;;0.50;0.20;;;;;;;;;;5055615;28;20120;-59
2024/02/04 06:22:42;;;;;;;0.30;0.10;;;;;;;;;;5054750;28;20079;-58
2024/02/04 06:25:08;;;;;;;0.60;0.30;;;;;;;;;;5054797;28;20163;-59
2024/02/04 06:27:37;;;;;;;0.60;0.28;;;;;;;;;;5055319;28;20455;-58
2024/02/04 06:30:03;;;;;;;0.20;0.13;;;;;;;;;;5055034;28;20096;-59
2024/02/04 06:32:30;;;;;;;1.10;0.30;;;;;;;;;;5054902;28;20166;-59
2024/02/04 06:34:58;;;;;;;0.70;0.30;;;;;;;;;;5054189;28;20025;-59
2024/02/04 06:37:25;;;;;;;0.43;0.20;;;;;;;;;;5054534;28;20036;-59
2024/02/04 06:39:51;;;;;;;1.33;0.40;;;;;;;;;;5054738;28;20497;-59
2024/02/04 06:42:17;;;;;;;0.82;0.40;;;;;;;;;;5054314;28;20021;-58
2024/02/04 06:44:44;;;;;;;0.40;0.20;;;;;;;;;;5054960;28;20063;-59
2024/02/04 06:47:12;;;;;;;0.15;0.10;;;;;;;;;;5054308;28;20037;-59
2024/02/04 06:49:38;;;;;;;1.20;0.40;;;;;;;;;;5054962;28;20131;-59
2024/02/04 06:52:04;;;;;;;0.10;0.10;;;;;;;;;;5054358;28;20481;-59
2024/02/04 06:54:30;;;;;;;0.32;0.20;;;;;;;;;;5054091;28;20056;-58
2024/02/04 06:56:56;;;;;;;0.40;0.20;;;;;;;;;;5054296;28;20029;-59
2024/02/04 06:59:21;;;;;;;0.55;0.28;;;;;;;;;;5053825;28;20032;-59
2024/02/04 07:01:47;;;;;;;0.13;0.10;;;;;;;;;;5054309;28;20115;-59
2024/02/04 07:04:13;;;;;;;0.50;0.20;;;;;;;;;;5054000;28;20029;-59
2024/02/04 07:06:39;;;;;;;0.17;0.10;;;;;;;;;;5054544;28;20025;-59
2024/02/04 07:09:05;;;;;;;0.65;0.30;;;;;;;;;;5054567;28;20029;-59
2024/02/04 07:11:31;;;;;;;0.50;0.20;;;;;;;;;;5054534;28;20051;-59
2024/02/04 07:13:59;;;;;;;0.30;0.20;;;;;;;;;;5054758;28;20021;-59
2024/02/04 07:16:25;;;;;;;0.47;0.20;;;;;;;;;;5053533;28;20118;-59
2024/02/04 07:18:51;;;;;;;0.68;0.40;;;;;;;;;;5054687;28;20459;-59
2024/02/04 07:21:17;;;;;;;0.30;0.20;;;;;;;;;;5053826;28;20466;-59
2024/02/04 07:23:43;;;;;;;0.43;0.20;;;;;;;;;;5053721;28;20037;-59
2024/02/04 07:26:09;;;;;;;0.57;0.20;;;;;;;;;;5054346;28;20406;-59
2024/02/04 07:28:35;;;;;;;0.52;0.30;;;;;;;;;;5054507;28;20025;-59
2024/02/04 07:31:01;;;;;;;0.35;0.20;;;;;;;;;;5054121;28;20481;-59
2024/02/04 07:33:27;;;;;;;0.85;0.32;;;;;;;;;;5053986;28;20395;-62
2024/02/04 07:35:53;;;;;;;0.70;0.32;;;;;;;;;;5053362;28;20029;-59
2024/02/04 07:38:19;;;;;;;0.82;0.40;;;;;;;;;;5054188;28;20021;-59
2024/02/04 07:40:45;;;;;;;0.73;0.38;;;;;;;;;;5053555;28;20031;-59
2024/02/04 07:43:11;;;;;;;1.58;0.50;;;;;;;;;;5053405;28;20041;-59
2024/02/04 07:45:37;;;;;;;1.00;0.50;;;;;;;;;;5053170;28;20025;-59
2024/02/04 07:48:03;;;;;;;0.63;0.32;;;;;;;;;;5056360;28;20029;-59
2024/02/04 07:50:29;;;;;;;1.27;0.73;;;;;;;;;;5057549;28;20033;-59
2024/02/04 07:52:55;;;;;;;0.40;0.20;;;;;;;;;;5057544;28;20032;-59
2024/02/04 07:55:21;;;;;;;1.20;0.63;;;;;;;;;;5057649;28;20486;-59
2024/02/04 07:57:47;;;;;;;0.93;0.40;;;;;;;;;;5057874;28;20102;-59
2024/02/04 08:00:13;;;;;;;0.80;0.40;;;;;;;;;;5057325;28;20025;-59
2024/02/04 08:02:39;;;;;;;0.70;0.40;;;;;;;;;;5057336;28;20106;-59
2024/02/04 08:05:06;;;;;;;0.98;0.50;;;;;;;;;;5057437;28;20033;-59
2024/02/04 08:07:32;;;;;;;0.75;0.40;;;;;;;;;;5057929;28;20064;-59
2024/02/04 08:09:58;;;;;;;2.50;0.77;;;;;;;;;;5057805;28;20034;-59
2024/02/04 08:12:24;;;;;;;0.85;0.40;;;;;;;;;;5057295;28;20032;-59
2024/02/04 08:14:50;;;;;;;1.08;0.50;;;;;;;;;;5057252;28;20033;-59
2024/02/04 08:17:16;;;;;;;1.08;0.52;;;;;;;;;;5057095;28;20029;-59
2024/02/04 08:19:42;;;;;;;1.45;0.50;;;;;;;;;;5057718;28;20033;-59
2024/02/04 08:22:08;;;;;;;1.55;0.45;;;;;;;;;;5057134;28;20028;-58
2024/02/04 08:24:34;;;;;;;1.30;0.60;;;;;;;;;;5056580;28;20037;-59
2024/02/04 08:27:00;;;;;;;1.40;0.50;;;;;;;;;;5057885;28;20032;-59
2024/02/04 08:29:26;;;;;;;2.22;0.60;;;;;;;;;;5057418;28;20021;-59
2024/02/04 08:31:53;;;;;;;1.23;0.60;;;;;;;;;;5056952;28;20473;-59
2024/02/04 08:34:25;;;;;;;2.10;0.80;;;;;;;;;;5056837;28;20037;-59
2024/02/04 08:36:51;;;;;;;1.08;0.47;;;;;;;;;;5056833;28;20370;-58
2024/02/04 08:39:17;;;;;;;0.85;0.38;;;;;;;;;;5057238;28;20021;-59
2024/02/04 08:41:43;;;;;;;1.88;0.60;;;;;;;;;;5056648;28;20021;-58
2024/02/04 08:44:09;;;;;;;0.85;0.43;;;;;;;;;;5056740;28;20036;-58
2024/02/04 08:46:35;;;;;;;0.65;0.40;;;;;;;;;;5057136;28;20025;-59
2024/02/04 08:49:01;;;;;;;1.10;0.40;;;;;;;;;;5056870;28;20025;-59
2024/02/04 08:51:27;;;;;;;0.93;0.40;;;;;;;;;;5057065;28;20352;-59
2024/02/04 08:53:53;;;;;;;1.65;0.63;;;;;;;;;;5056535;28;20113;-59
2024/02/04 08:56:19;;;;;;;1.48;0.52;;;;;;;;;;5056611;28;20080;-59
2024/02/04 08:58:46;;;;;;;0.77;0.25;;;;;;;;;;5056640;28;20028;-58
2024/02/04 09:01:12;;;;;;;1.05;0.45;;;;;;;;;;5056324;28;20029;-59
2024/02/04 09:03:37;;;;;;;1.02;0.38;;;;;;;;;;5056172;28;20513;-59
2024/02/04 09:06:04;;;;;;;0.40;0.28;;;;;;;;;;5056516;28;20021;-59
2024/02/04 09:08:30;;;;;;;1.10;0.40;;;;;;;;;;5056538;28;20120;-59
2024/02/04 09:10:56;;;;;;;1.80;0.50;;;;;;;;;;5056110;28;20375;-59
2024/02/04 09:13:22;;;;;;;0.82;0.32;;;;;;;;;;5056635;28;20033;-59
2024/02/04 09:15:49;;;;;;;0.60;0.30;;;;;;;;;;5056028;28;20032;-59
2024/02/04 09:18:15;;;;;;;0.93;0.30;;;;;;;;;;5056916;28;20035;-59
2024/02/04 09:20:41;;;;;;;0.38;0.25;;;;;;;;;;5055768;28;20025;-58
2024/02/04 09:23:07;;;;;;;1.15;0.68;;;;;;;;;;5056401;28;20029;-59
2024/02/04 09:25:33;;;;;;;1.13;0.40;;;;;;;;;;5055966;28;20462;-59
2024/02/04 09:27:59;;;;;;;0.95;0.38;;;;;;;;;;5055921;28;20025;-59
2024/02/04 09:30:25;;;;;;;0.50;0.25;;;;;;;;;;5056324;28;20032;-59
2024/02/04 09:32:51;;;;;;;1.40;0.65;;;;;;;;;;5056120;28;20036;-59
2024/02/04 09:35:20;;;;;;;1.60;0.55;;;;;;;;;;5056195;28;20102;-59
2024/02/04 09:37:46;;;;;;;0.57;0.20;;;;;;;;;;5056286;28;20067;-59
2024/02/04 09:40:12;;;;;;;0.52;0.20;;;;;;;;;;5055621;28;20025;-59
2024/02/04 09:42:38;;;;;;;0.50;0.30;;;;;;;;;;5055551;28;20059;-59
2024/02/04 09:45:04;;;;;;;2.03;0.20;;;;;;;;;;5056334;28;20028;-59
2024/02/04 09:47:31;;;;;;;0.50;0.25;;;;;;;;;;5055909;28;20037;-59
2024/02/04 09:49:57;;;;;;;0.93;0.40;;;;;;;;;;5055216;28;20033;-59
2024/02/04 09:52:30;;;;;;;0.38;0.20;;;;;;;;;;5056110;28;20094;-59
2024/02/04 09:55:03;;;;;;;0.70;0.22;;;;;;;;;;5055179;28;20056;-59
2024/02/04 09:57:30;;;;;;;0.43;0.20;;;;;;;;;;5055248;28;20043;-58
2024/02/04 09:59:56;;;;;;;0.17;0.08;;;;;;;;;;5055712;28;20418;-58
2024/02/04 10:02:24;;;;;;;0.43;0.20;;;;;;;;;;5055081;28;20025;-58
2024/02/04 10:04:50;;;;;;;0.43;0.20;;;;;;;;;;5055057;28;20032;-58
2024/02/04 10:07:18;;;;;;;0.75;0.28;;;;;;;;;;5055076;28;20029;-58
2024/02/04 10:09:44;;;;;;;0.25;0.10;;;;;;;;;;5054352;28;20459;-58
2024/02/04 10:12:10;;;;;;;0.30;0.10;;;;;;;;;;5053837;28;20102;-58
2024/02/04 10:14:36;;;;;;;0.38;0.15;;;;;;;;;;5054689;28;20495;-58
2024/02/04 10:17:02;;;;;;;0.30;0.17;;;;;;;;;;5054889;28;20033;-58
2024/02/04 10:19:28;;;;;;;0.30;0.10;;;;;;;;;;5054927;28;20036;-58
2024/02/04 10:22:00;;;;;;;0.03;0.00;;;;;;;;;;5054749;28;20458;-58
2024/02/04 10:24:26;;;;;;;0.20;0.10;;;;;;;;;;5054486;28;20033;-58
2024/02/04 10:26:52;;;;;;;0.15;0.05;;;;;;;;;;5054611;28;20379;-58
2024/02/04 10:29:19;;;;;;;1.88;0.30;;;;;;;;;;5054224;28;20021;-59
2024/02/04 10:31:45;;;;;;;0.52;0.28;;;;;;;;;;5054628;28;20024;-58
2024/02/04 10:34:10;;;;;;;0.22;0.10;;;;;;;;;;5054736;28;20183;-59
2024/02/04 10:36:36;;;;;;;0.25;0.10;;;;;;;;;;5054465;28;20021;-57
2024/02/04 10:39:04;;;;;;;0.32;0.15;;;;;;;;;;5054896;28;20032;-57
2024/02/04 10:41:32;;;;;;;0.73;0.30;;;;;;;;;;5054298;28;20126;-57
2024/02/04 10:43:59;;;;;;;0.30;0.10;;;;;;;;;;5054428;28;20037;-57
2024/02/04 10:46:28;;;;;;;0.85;0.38;;;;;;;;;;5054604;28;20029;-57
2024/02/04 10:49:01;;;;;;;0.35;0.20;;;;;;;;;;5054496;28;20025;-58
2024/02/04 10:51:27;;;;;;;0.93;0.50;;;;;;;;;;5054196;28;20037;-58
2024/02/04 10:53:56;;;;;;;0.17;0.08;;;;;;;;;;5054235;28;20410;-59
2024/02/04 10:56:25;;;;;;;0.35;0.17;;;;;;;;;;5054526;28;20158;-58
2024/02/04 10:58:52;;;;;;;0.95;0.40;;;;;;;;;;5054736;28;20047;-58
2024/02/04 11:01:18;;;;;;;0.77;0.32;;;;;;;;;;5053810;28;20028;-59
2024/02/04 11:03:45;;;;;;;1.05;0.40;;;;;;;;;;5053848;28;20136;-58
2024/02/04 11:06:11;;;;;;;1.20;0.63;;;;;;;;;;5053894;28;20463;-58
2024/02/04 11:08:39;;;;;;;2.08;0.70;;;;;;;;;;5054284;28;20075;-59
2024/02/04 11:11:05;;;;;;;1.25;0.50;;;;;;;;;;5054303;28;20411;-58
2024/02/04 11:13:31;;;;;;;4.53;1.73;;;;;;;;;;5053773;28;20067;-60
2024/02/04 11:16:05;;;;;;;1.05;0.65;;;;;;;;;;5053476;28;20108;-59
2024/02/04 11:18:40;;;;;;;0.52;0.20;;;;;;;;;;5054269;28;20090;-58
2024/02/04 11:21:15;;;;;;;0.82;0.40;;;;;;;;;;5054181;28;20028;-57
2024/02/04 11:23:48;;;;;;;0.30;0.20;;;;;;;;;;5053096;28;20179;-57
2024/02/04 11:26:14;;;;;;;0.25;0.20;;;;;;;;;;5054050;28;20033;-57
2024/02/04 11:28:40;;;;;;;0.30;0.20;;;;;;;;;;5053228;28;20461;-58
2024/02/04 11:31:13;;;;;;;0.70;0.20;;;;;;;;;;5053318;28;20060;-58
2024/02/04 11:33:39;;;;;;;1.75;0.60;;;;;;;;;;5054031;28;20029;-58
2024/02/04 11:36:07;;;;;;;2.60;0.73;;;;;;;;;;5053464;28;20027;-58
2024/02/04 11:38:33;;;;;;;1.23;0.47;;;;;;;;;;5054157;28;20029;-58
2024/02/04 11:40:59;;;;;;;0.65;0.30;;;;;;;;;;5054133;28;20047;-58
2024/02/04 11:43:25;;;;;;;0.52;0.22;;;;;;;;;;5054046;28;20040;-58
2024/02/04 11:45:54;;;;;;;0.22;0.17;;;;;;;;;;5054022;28;20035;-58
2024/02/04 11:48:20;;;;;;;0.32;0.30;;;;;;;;;;5054066;28;20036;-58
2024/02/04 11:50:52;;;;;;;0.73;0.28;;;;;;;;;;5053437;28;20025;-58
2024/02/04 11:53:18;;;;;;;1.08;0.50;;;;;;;;;;5054045;28;20036;-58
2024/02/04 11:55:45;;;;;;;0.40;0.20;;;;;;;;;;5053435;28;20124;-58
2024/02/04 11:58:11;;;;;;;0.55;0.30;;;;;;;;;;5053485;28;20068;-58
2024/02/04 12:00:37;;;;;;;0.47;0.25;;;;;;;;;;5053091;28;20032;-58
2024/02/04 12:03:04;;;;;;;0.47;0.10;;;;;;;;;;5053779;28;20029;-59
2024/02/04 12:05:34;;;;;;;0.40;0.20;;;;;;;;;;5053774;28;20383;-58
2024/02/04 12:08:01;;;;;;;0.20;0.10;;;;;;;;;;5054455;28;20120;-60
2024/02/04 12:10:27;;;;;;;0.28;0.10;;;;;;;;;;5053850;28;20021;-60
2024/02/04 12:12:53;;;;;;;0.43;0.10;;;;;;;;;;5053579;28;20440;-59
2024/02/04 12:15:20;;;;;;;0.30;0.10;;;;;;;;;;5053352;28;20111;-58
2024/02/04 12:17:46;;;;;;;0.32;0.10;;;;;;;;;;5053258;28;20029;-60
2024/02/04 12:20:12;;;;;;;0.30;0.10;;;;;;;;;;5052882;28;20028;-60
2024/02/04 12:22:38;;;;;;;0.25;0.10;;;;;;;;;;5053536;28;20029;-59
2024/02/04 12:25:04;;;;;;;0.20;0.00;;;;;;;;;;5053876;28;20440;-59
2024/02/04 12:27:30;;;;;;;0.10;0.00;;;;;;;;;;5053283;28;20439;-59
2024/02/04 12:29:56;;;;;;;0.25;0.10;;;;;;;;;;5053211;28;20144;-59
2024/02/04 12:32:22;;;;;;;0.20;0.10;;;;;;;;;;5053484;28;20104;-59
2024/02/04 12:34:51;;;;;;;0.20;0.10;;;;;;;;;;5056392;28;20388;-59
2024/02/04 12:37:17;;;;;;;0.17;0.10;;;;;;;;;;5057363;28;20025;-59
2024/02/04 12:39:43;;;;;;;0.22;0.10;;;;;;;;;;5057267;28;20410;-59
2024/02/04 12:42:09;;;;;;;0.47;0.17;;;;;;;;;;5056738;28;20037;-59
2024/02/04 12:44:35;;;;;;;0.00;0.00;;;;;;;;;;5056946;28;20478;-59
2024/02/04 12:47:02;;;;;;;0.30;0.10;;;;;;;;;;5056650;28;20386;-59
2024/02/04 12:49:28;;;;;;;0.40;0.10;;;;;;;;;;5057134;28;20033;-59
2024/02/04 12:52:04;;;;;;;0.90;0.60;;;;;;;;;;5056618;28;20055;-59
2024/02/04 12:54:30;;;;;;;0.52;0.15;;;;;;;;;;5056705;28;20041;-59
2024/02/04 12:57:11;;;;;;;0.80;0.47;;;;;;;;;;5070920;28;20391;-57
2024/02/04 12:59:37;;;;;;;0.30;0.20;;;;;;;;;;5071060;28;20094;-57
2024/02/04 13:02:06;;;;;;;0.40;0.10;;;;;;;;;;5071024;28;20024;-57
2024/02/04 13:04:36;;;;;;;0.00;0.00;;;;;;;;;;5070579;28;20029;-57
2024/02/04 13:07:02;;;;;;;0.10;0.10;;;;;;;;;;5071408;28;20040;-59
2024/02/04 13:09:28;;;;;;;0.20;0.10;;;;;;;;;;5070860;28;20028;-59
2024/02/04 13:12:03;;;;;;;0.15;0.10;;;;;;;;;;5070562;28;20021;-59
2024/02/04 13:14:29;;;;;;;0.10;0.10;;;;;;;;;;5071385;28;20079;-59
2024/02/04 13:16:55;;;;;;;0.43;0.13;;;;;;;;;;5070585;28;20036;-59
2024/02/04 13:19:21;;;;;;;0.25;0.10;;;;;;;;;;5071574;28;20029;-58
2024/02/04 13:21:47;;;;;;;0.17;0.10;;;;;;;;;;5070375;28;20378;-58
2024/02/04 13:24:12;;;;;;;1.00;0.40;;;;;;;;;;5070543;28;20020;-58
2024/02/04 13:26:38;;;;;;;0.10;0.10;;;;;;;;;;5070849;28;20040;-58
2024/02/04 13:29:04;;;;;;;0.68;0.22;;;;;;;;;;5070559;28;20016;-58
2024/02/04 13:31:30;;;;;;;0.38;0.10;;;;;;;;;;5070473;28;20033;-58
2024/02/04 13:33:56;;;;;;;0.30;0.20;;;;;;;;;;5070407;28;20025;-58
2024/02/04 13:36:23;;;;;;;0.60;0.10;;;;;;;;;;5070176;28;20390;-58
2024/02/04 13:38:49;;;;;;;0.10;0.10;;;;;;;;;;5070399;28;20033;-58
2024/02/04 13:41:15;;;;;;;0.03;0.03;;;;;;;;;;5070230;28;20028;-58
2024/02/04 13:43:43;;;;;;;0.47;0.28;;;;;;;;;;5070135;28;20403;-58
2024/02/04 13:46:09;;;;;;;0.60;0.30;;;;;;;;;;5069958;28;20032;-58
2024/02/04 13:48:35;;;;;;;0.55;0.20;;;;;;;;;;5070540;28;20161;-58
2024/02/04 13:51:01;;;;;;;0.73;0.20;;;;;;;;;;5070356;28;20418;-58
2024/02/04 13:53:27;;;;;;;1.90;0.20;;;;;;;;;;5070528;28;20024;-58
2024/02/04 13:55:53;;;;;;;0.38;0.20;;;;;;;;;;5069934;28;20080;-59
2024/02/04 13:58:19;;;;;;;0.50;0.20;;;;;;;;;;5069782;28;20031;-59
2024/02/04 14:00:45;;;;;;;0.25;0.10;;;;;;;;;;5070130;28;20028;-59
2024/02/04 14:03:13;;;;;;;0.32;0.20;;;;;;;;;;5070466;28;20140;-59
2024/02/04 14:05:39;;;;;;;0.63;0.20;;;;;;;;;;5070095;28;20068;-59
2024/02/04 14:08:06;;;;;;;0.95;0.30;;;;;;;;;;5059364;28;20087;-58
2024/02/04 14:10:32;;;;;;;0.47;0.28;;;;;;;;;;5056367;28;20029;-59
2024/02/04 14:12:57;;;;;;;0.65;0.30;;;;;;;;;;5056823;28;20032;-60
2024/02/04 14:15:23;;;;;;;0.30;0.20;;;;;;;;;;5055870;28;20029;-58
2024/02/04 14:17:49;;;;;;;0.45;0.20;;;;;;;;;;5056272;28;20111;-59
2024/02/04 14:20:15;;;;;;;0.60;0.28;;;;;;;;;;5056177;28;20028;-58
2024/02/04 14:22:47;;;;;;;0.63;0.30;;;;;;;;;;5056390;28;20033;-59
2024/02/04 14:25:13;;;;;;;0.50;0.20;;;;;;;;;;5056139;28;20033;-59
2024/02/04 14:27:39;;;;;;;0.80;0.38;;;;;;;;;;5056510;28;20032;-59
2024/02/04 14:30:06;;;;;;;0.70;0.30;;;;;;;;;;5056070;28;20025;-60
2024/02/04 14:32:32;;;;;;;0.57;0.30;;;;;;;;;;5056038;28;20443;-59
2024/02/04 14:34:58;;;;;;;0.73;0.30;;;;;;;;;;5055908;28;20127;-59
2024/02/04 14:37:24;;;;;;;0.30;0.10;;;;;;;;;;5055995;28;20493;-59
2024/02/04 14:39:50;;;;;;;0.63;0.30;;;;;;;;;;5056194;28;20075;-59